Time;durP1;ratioP1;P1;durP2;ratioP2;P2;SDS_P1;SDS_P2;PMS_P1;PMS_P2;Temp;Humidity;BMP_temperature;BMP_pressure;BME280_temperature;BME280_humidity;BME280_pressure;Samples;Min_cycle;Max_cycle;Signal;HPM_P1;HPM_P2
2021/12/08 00:00:53;;;;;;;18.98;9.32;;;2.50;99.90;;;;;;5114171;28;20207;-61
2021/12/08 00:03:21;;;;;;;16.65;9.98;;;2.40;99.90;;;;;;5113848;28;20589;-61
2021/12/08 00:05:48;;;;;;;14.30;9.85;;;2.40;99.90;;;;;;5114164;28;20521;-61
2021/12/08 00:08:17;;;;;;;12.20;8.30;;;2.40;99.90;;;;;;5114057;28;20215;-61
2021/12/08 00:13:37;;;;;;;16.70;9.15;;;2.50;99.90;;;;;;5038037;28;20251;-62
2021/12/08 00:16:08;;;;;;;12.70;8.63;;;2.40;99.90;;;;;;5113936;28;20183;-60
2021/12/08 00:18:36;;;;;;;16.38;7.80;;;2.50;99.90;;;;;;5115091;28;20194;-61
2021/12/08 00:21:07;;;;;;;11.45;7.55;;;2.50;99.90;;;;;;5116928;28;20290;-61
2021/12/08 00:23:34;;;;;;;9.07;6.40;;;2.50;99.90;;;;;;5116936;28;20685;-61
2021/12/08 00:26:03;;;;;;;10.93;6.60;;;2.50;99.90;;;;;;5121938;28;20659;-61
2021/12/08 00:28:30;;;;;;;10.20;6.22;;;2.60;99.90;;;;;;5121784;28;20260;-61
2021/12/08 00:31:00;;;;;;;16.05;7.72;;;2.60;99.90;;;;;;5122266;28;20207;-61
2021/12/08 00:33:30;;;;;;;10.75;6.32;;;2.60;99.90;;;;;;5122492;28;20640;-61
2021/12/08 00:35:58;;;;;;;6.68;5.13;;;2.70;99.90;;;;;;5122510;28;20200;-60
2021/12/08 00:38:25;;;;;;;6.97;4.72;;;2.70;99.90;;;;;;5120997;28;20223;-60
2021/12/08 00:40:53;;;;;;;9.45;5.57;;;2.80;99.90;;;;;;5119447;28;20200;-60
2021/12/08 00:43:21;;;;;;;6.32;4.47;;;2.80;99.90;;;;;;5119377;28;20216;-61
2021/12/08 00:45:49;;;;;;;5.85;4.40;;;2.90;99.90;;;;;;5121135;28;20668;-61
2021/12/08 00:48:18;;;;;;;9.90;5.10;;;3.00;99.90;;;;;;5120578;28;20200;-60
2021/12/08 00:50:47;;;;;;;5.05;4.55;;;3.00;99.90;;;;;;5121306;28;20204;-61
2021/12/08 00:53:14;;;;;;;5.22;3.95;;;3.10;99.90;;;;;;5120953;28;20589;-60
2021/12/08 00:55:41;;;;;;;6.10;4.80;;;3.10;99.90;;;;;;5121081;28;20227;-62
2021/12/08 00:58:09;;;;;;;8.20;4.82;;;3.20;99.90;;;;;;5120783;28;20200;-60
2021/12/08 01:00:38;;;;;;;6.43;4.40;;;3.20;99.90;;;;;;5120052;28;20204;-59
2021/12/08 01:03:07;;;;;;;6.63;4.45;;;3.20;99.90;;;;;;5118578;28;20594;-60
2021/12/08 01:05:42;;;;;;;5.68;3.80;;;3.30;99.90;;;;;;5120782;28;20200;-61
2021/12/08 01:08:11;;;;;;;5.20;4.10;;;3.30;99.90;;;;;;5120213;28;20190;-60
2021/12/08 01:10:40;;;;;;;5.30;3.47;;;3.30;99.90;;;;;;5118350;28;20196;-59
2021/12/08 01:13:10;;;;;;;4.53;4.13;;;3.40;99.90;;;;;;5118242;28;20224;-60
2021/12/08 01:15:39;;;;;;;6.68;4.38;;;3.30;99.90;;;;;;5118087;28;20614;-61
2021/12/08 01:18:07;;;;;;;5.95;3.83;;;3.40;99.90;;;;;;5118313;28;20215;-60
2021/12/08 01:20:35;;;;;;;10.65;4.63;;;3.40;99.90;;;;;;5118306;28;20203;-60
2021/12/08 01:23:02;;;;;;;8.48;5.40;;;3.40;99.90;;;;;;5117751;28;20250;-60
2021/12/08 01:25:31;;;;;;;7.65;4.32;;;3.40;99.90;;;;;;5118234;28;20191;-60
2021/12/08 01:27:58;;;;;;;4.60;3.75;;;3.40;99.90;;;;;;5118117;28;20682;-61
2021/12/08 01:30:25;;;;;;;6.63;4.78;;;3.40;99.90;;;;;;5117878;28;20211;-60
2021/12/08 01:32:53;;;;;;;6.07;4.50;;;3.40;99.90;;;;;;5117933;28;20207;-59
2021/12/08 01:35:21;;;;;;;9.57;3.85;;;3.40;99.90;;;;;;5116990;28;20702;-60
2021/12/08 01:37:48;;;;;;;4.22;3.72;;;3.40;99.90;;;;;;5116782;28;20211;-61
2021/12/08 01:40:16;;;;;;;4.68;4.18;;;3.40;99.90;;;;;;5117244;28;20211;-60
2021/12/08 01:42:47;;;;;;;8.80;4.95;;;3.40;99.90;;;;;;5117189;28;20203;-60
2021/12/08 01:48:05;;;;;;;8.65;5.25;;;3.40;99.90;;;;;;5119944;28;20342;-61
2021/12/08 01:50:32;;;;;;;7.93;3.80;;;3.40;99.90;;;;;;5119438;28;20647;-60
2021/12/08 01:52:59;;;;;;;7.63;4.72;;;3.40;99.80;;;;;;5118873;28;20231;-60
2021/12/08 01:55:26;;;;;;;6.15;3.83;;;3.40;99.70;;;;;;5118139;28;20223;-60
2021/12/08 01:57:55;;;;;;;6.65;4.22;;;3.40;99.60;;;;;;5118152;28;20203;-60
2021/12/08 02:00:26;;;;;;;4.97;3.97;;;3.40;99.50;;;;;;5116565;28;20670;-60
2021/12/08 02:02:53;;;;;;;7.50;4.22;;;3.50;99.40;;;;;;5116053;28;20188;-61
2021/12/08 02:05:21;;;;;;;4.72;3.55;;;3.50;99.30;;;;;;5116054;28;20202;-61
2021/12/08 02:07:48;;;;;;;7.40;4.05;;;3.50;99.20;;;;;;5117487;28;20204;-60
2021/12/08 02:10:16;;;;;;;4.65;3.70;;;3.50;99.00;;;;;;5118529;28;20206;-60
2021/12/08 02:12:43;;;;;;;9.23;4.20;;;3.50;99.00;;;;;;5117993;28;20199;-60
2021/12/08 02:15:14;;;;;;;9.00;4.47;;;3.50;98.90;;;;;;5118074;28;20219;-60
2021/12/08 02:17:42;;;;;;;6.32;4.63;;;3.60;99.00;;;;;;5117889;28;20229;-60
2021/12/08 02:20:11;;;;;;;8.05;4.50;;;3.60;98.80;;;;;;5118511;28;20224;-60
2021/12/08 02:22:40;;;;;;;6.53;3.75;;;3.60;98.80;;;;;;5118336;28;20199;-60
2021/12/08 02:25:10;;;;;;;6.78;4.45;;;3.70;98.70;;;;;;5117360;28;20208;-59
2021/12/08 02:27:37;;;;;;;4.22;3.45;;;3.70;98.50;;;;;;5117017;28;20199;-60
2021/12/08 02:30:14;;;;;;;4.43;4.00;;;3.70;98.50;;;;;;5117406;28;20212;-60
2021/12/08 02:46:44;;;;;;;5.18;2.60;;;3.70;98.40;;;;;;5115462;28;20199;-60
2021/12/08 02:49:12;;;;;;;5.80;2.95;;;3.80;98.40;;;;;;5114238;28;20365;-60
2021/12/08 02:51:39;;;;;;;2.75;2.55;;;3.80;98.40;;;;;;5115280;28;20208;-60
2021/12/08 02:54:08;;;;;;;2.85;2.40;;;3.80;98.40;;;;;;5115169;28;20246;-60
2021/12/08 02:56:35;;;;;;;3.80;2.50;;;3.80;98.40;;;;;;5115081;28;20204;-60
2021/12/08 02:59:03;;;;;;;3.35;3.05;;;3.80;98.40;;;;;;5115013;28;20210;-61
2021/12/08 03:01:31;;;;;;;4.90;3.20;;;3.80;98.40;;;;;;5114820;28;20195;-60
2021/12/08 03:03:58;;;;;;;2.75;2.40;;;3.80;98.50;;;;;;5114571;28;20226;-60
2021/12/08 03:06:25;;;;;;;5.22;2.58;;;3.80;98.70;;;;;;5115623;28;20203;-61
2021/12/08 03:08:52;;;;;;;3.28;2.75;;;3.80;98.90;;;;;;5115033;28;20203;-60
2021/12/08 03:11:21;;;;;;;3.60;2.38;;;3.80;98.90;;;;;;5114874;28;20609;-60
2021/12/08 03:14:02;;;;;;;2.88;2.42;;;3.80;99.10;;;;;;5114339;28;20219;-60
2021/12/08 03:16:29;;;;;;;3.85;2.80;;;3.80;99.00;;;;;;5114294;28;20643;-60
2021/12/08 03:18:56;;;;;;;4.38;2.60;;;3.80;99.10;;;;;;5114377;28;20674;-59
2021/12/08 03:21:29;;;;;;;4.88;2.65;;;3.80;99.20;;;;;;5114705;28;20203;-60
2021/12/08 03:24:08;;;;;;;4.20;2.70;;;3.80;99.30;;;;;;5114276;28;20240;-60
2021/12/08 03:26:45;;;;;;;5.15;2.55;;;3.80;99.30;;;;;;5114320;28;20556;-60
2021/12/08 03:29:22;;;;;;;5.63;2.50;;;3.80;99.50;;;;;;5114470;28;20187;-60
2021/12/08 03:31:52;;;;;;;3.20;2.50;;;3.80;99.60;;;;;;5114743;28;20183;-60
2021/12/08 03:34:22;;;;;;;5.70;2.90;;;3.80;99.60;;;;;;5114291;28;20238;-60
2021/12/08 03:36:49;;;;;;;3.20;2.42;;;3.90;99.70;;;;;;5114521;28;20188;-60
2021/12/08 03:39:17;;;;;;;5.57;3.35;;;3.80;99.70;;;;;;5114588;28;20207;-61
2021/12/08 03:41:46;;;;;;;3.50;3.20;;;3.80;99.60;;;;;;5115957;28;20683;-60
2021/12/08 03:44:13;;;;;;;4.68;3.00;;;3.80;99.60;;;;;;5118335;28;20224;-60
2021/12/08 03:46:42;;;;;;;3.88;2.67;;;3.80;99.90;;;;;;5116281;28;20567;-60
2021/12/08 03:49:12;;;;;;;3.08;2.53;;;3.80;99.70;;;;;;5115895;28;20594;-59
2021/12/08 03:51:40;;;;;;;3.05;2.55;;;3.80;99.70;;;;;;5115027;28;20184;-60
2021/12/08 03:54:08;;;;;;;5.93;3.00;;;3.80;99.80;;;;;;5115184;28;20227;-60
2021/12/08 03:56:35;;;;;;;5.05;2.90;;;3.80;99.80;;;;;;5115430;28;20199;-60
2021/12/08 03:59:06;;;;;;;3.78;2.70;;;3.80;99.90;;;;;;5115048;28;20204;-60
2021/12/08 04:01:34;;;;;;;3.53;2.92;;;3.80;99.90;;;;;;5114863;28;20660;-61
2021/12/08 04:04:06;;;;;;;2.70;2.50;;;3.80;99.90;;;;;;5115322;28;20220;-60
2021/12/08 04:09:05;;;;;;;4.20;2.40;;;3.80;99.90;;;;;;5092400;27;20553;-61
2021/12/08 04:11:33;;;;;;;3.00;2.47;;;3.90;99.90;;;;;;5091187;28;20693;-61
2021/12/08 04:14:10;;;;;;;5.10;3.17;;;3.90;99.90;;;;;;5091092;28;20228;-61
2021/12/08 04:16:42;;;;;;;5.30;2.38;;;3.90;99.90;;;;;;5090973;28;20184;-60
2021/12/08 04:19:10;;;;;;;4.22;3.00;;;4.00;99.90;;;;;;5090708;28;20193;-61
2021/12/08 04:21:39;;;;;;;3.35;2.58;;;4.00;99.90;;;;;;5092162;28;20204;-60
2021/12/08 04:24:08;;;;;;;2.55;2.22;;;4.00;99.90;;;;;;5090564;28;20225;-60
2021/12/08 04:26:38;;;;;;;3.22;2.92;;;4.00;99.80;;;;;;5090711;28;20616;-61
2021/12/08 04:29:06;;;;;;;2.92;2.50;;;4.00;99.80;;;;;;5091326;28;20200;-60
2021/12/08 04:31:37;;;;;;;5.93;2.70;;;4.10;99.60;;;;;;5090801;28;20208;-60
2021/12/08 04:34:07;;;;;;;3.38;2.60;;;4.10;99.60;;;;;;5090468;28;20220;-60
2021/12/08 04:36:43;;;;;;;3.90;2.97;;;4.10;99.50;;;;;;5090628;28;20188;-60
2021/12/08 04:39:18;;;;;;;4.90;3.20;;;4.10;99.60;;;;;;5090351;28;20188;-61
2021/12/08 04:41:50;;;;;;;4.88;3.08;;;4.10;99.60;;;;;;5090193;28;20652;-60
2021/12/08 04:44:30;;;;;;;3.78;2.83;;;4.10;99.50;;;;;;5090526;28;20248;-61
2021/12/08 04:47:19;;;;;;;4.53;3.30;;;4.10;99.60;;;;;;5090139;28;20234;-61
2021/12/08 04:52:40;;;;;;;3.83;3.05;;;4.10;99.90;;;;;;5087143;28;20200;-61
2021/12/08 05:01:10;;;;;;;5.72;3.80;;;3.90;99.90;;;;;;5090926;28;20662;-59
2021/12/08 05:03:48;;;;;;;5.75;3.50;;;3.90;99.90;;;;;;5091166;28;20312;-60
2021/12/08 05:06:35;;;;;;;5.78;3.60;;;3.80;99.90;;;;;;5091979;28;20238;-60
2021/12/08 05:09:05;;;;;;;3.83;2.92;;;3.80;99.90;;;;;;5092987;28;20247;-61
2021/12/08 05:11:36;;;;;;;4.22;3.45;;;3.80;99.90;;;;;;5094972;28;20200;-61
2021/12/08 05:14:07;;;;;;;7.75;3.65;;;3.80;99.90;;;;;;5102573;28;20220;-60
2021/12/08 05:16:36;;;;;;;4.15;3.08;;;3.80;99.90;;;;;;5102952;28;20208;-60
2021/12/08 05:19:09;;;;;;;4.78;3.50;;;3.80;99.90;;;;;;5091423;28;20261;-60
2021/12/08 05:21:40;;;;;;;5.05;3.13;;;3.80;99.90;;;;;;5079067;28;20196;-60
2021/12/08 05:24:11;;;;;;;5.05;3.53;;;3.80;99.90;;;;;;5076511;28;20581;-60
2021/12/08 05:26:45;;;;;;;4.70;3.22;;;3.90;99.90;;;;;;5076358;28;20189;-60
2021/12/08 05:29:17;;;;;;;3.47;3.03;;;3.90;99.90;;;;;;5076118;28;20220;-60
2021/12/08 05:31:44;;;;;;;4.40;3.50;;;3.90;99.90;;;;;;5075793;28;20189;-60
2021/12/08 05:34:12;;;;;;;10.45;3.70;;;3.90;99.90;;;;;;5075536;28;20235;-60
2021/12/08 05:36:40;;;;;;;4.85;3.65;;;3.90;99.90;;;;;;5076086;28;20197;-59
2021/12/08 05:39:11;;;;;;;5.55;3.40;;;3.90;99.90;;;;;;5076185;28;20201;-60
2021/12/08 05:41:44;;;;;;;3.55;3.00;;;3.90;99.90;;;;;;5075720;28;20193;-60
2021/12/08 05:44:12;;;;;;;4.28;3.15;;;3.90;99.90;;;;;;5075820;28;20228;-60
2021/12/08 05:46:42;;;;;;;3.08;2.78;;;3.90;99.90;;;;;;5077642;28;20204;-60
2021/12/08 05:49:11;;;;;;;7.47;2.88;;;3.90;99.90;;;;;;5076385;28;20220;-60
2021/12/08 05:51:38;;;;;;;3.85;3.22;;;3.90;99.90;;;;;;5076642;28;20201;-59
2021/12/08 05:54:12;;;;;;;6.82;2.75;;;3.90;99.90;;;;;;5076460;28;20221;-60
2021/12/08 05:56:42;;;;;;;3.83;3.40;;;3.90;99.90;;;;;;5076165;28;20642;-60
2021/12/08 05:59:11;;;;;;;4.07;3.28;;;3.90;99.90;;;;;;5078309;28;20204;-59
2021/12/08 06:01:42;;;;;;;6.10;3.50;;;3.90;99.90;;;;;;5078873;28;20201;-60
2021/12/08 06:04:11;;;;;;;6.53;4.63;;;3.80;99.90;;;;;;5079389;28;20225;-60
2021/12/08 06:06:39;;;;;;;4.05;3.20;;;3.80;99.90;;;;;;5079484;28;20262;-60
2021/12/08 06:09:08;;;;;;;6.55;2.97;;;3.80;99.90;;;;;;5080257;28;20216;-60
2021/12/08 06:11:36;;;;;;;5.10;3.80;;;3.80;99.90;;;;;;5079868;28;20573;-60
2021/12/08 06:14:07;;;;;;;5.25;3.42;;;3.80;99.90;;;;;;5079167;28;20224;-60
2021/12/08 06:16:35;;;;;;;5.25;3.75;;;3.80;99.90;;;;;;5078364;28;20652;-60
2021/12/08 06:19:03;;;;;;;6.78;3.60;;;3.80;99.90;;;;;;5079542;28;20204;-61
2021/12/08 06:21:32;;;;;;;8.23;4.13;;;3.80;99.90;;;;;;5079587;28;20208;-60
2021/12/08 06:24:01;;;;;;;4.22;3.30;;;3.80;99.90;;;;;;5081024;28;20239;-60
2021/12/08 06:26:29;;;;;;;5.15;3.55;;;3.80;99.90;;;;;;5080488;28;20205;-60
2021/12/08 06:28:57;;;;;;;3.70;3.38;;;3.80;99.90;;;;;;5078213;28;20221;-59
2021/12/08 06:31:29;;;;;;;5.15;4.00;;;3.80;99.90;;;;;;5077002;28;20205;-60
2021/12/08 06:33:58;;;;;;;5.95;3.97;;;3.80;99.90;;;;;;5077074;28;20730;-60
2021/12/08 06:36:29;;;;;;;3.97;3.63;;;3.80;99.90;;;;;;5076921;28;20672;-60
2021/12/08 06:38:58;;;;;;;5.47;3.50;;;3.80;99.90;;;;;;5077883;28;20192;-60
2021/12/08 06:41:28;;;;;;;4.93;3.20;;;3.80;99.90;;;;;;5075719;28;20739;-60
2021/12/08 06:44:01;;;;;;;4.80;3.75;;;3.90;99.90;;;;;;5075902;28;20225;-59
2021/12/08 06:46:30;;;;;;;4.55;3.70;;;3.90;99.90;;;;;;5075751;28;20213;-60
2021/12/08 06:49:00;;;;;;;5.68;4.30;;;3.90;99.90;;;;;;5075488;28;20221;-60
2021/12/08 06:51:31;;;;;;;4.30;3.75;;;3.90;99.90;;;;;;5076197;28;20272;-60
2021/12/08 06:54:04;;;;;;;4.72;4.15;;;3.90;99.90;;;;;;5079167;28;20704;-61
2021/12/08 06:56:36;;;;;;;6.07;4.10;;;3.90;99.90;;;;;;5078821;28;20189;-60
2021/12/08 06:59:09;;;;;;;4.97;3.50;;;3.90;99.90;;;;;;5077181;28;20261;-59
2021/12/08 07:01:47;;;;;;;4.25;3.85;;;3.90;99.90;;;;;;5076466;28;20217;-60
2021/12/08 07:04:29;;;;;;;5.88;3.50;;;4.00;99.90;;;;;;5074819;28;20274;-61
2021/12/08 07:07:02;;;;;;;4.03;3.53;;;4.00;99.90;;;;;;5075320;28;20212;-60
2021/12/08 07:09:34;;;;;;;7.00;4.30;;;4.00;99.90;;;;;;5075735;28;20738;-61
2021/12/08 07:12:06;;;;;;;6.65;4.30;;;4.10;99.90;;;;;;5079342;28;20529;-61
2021/12/08 07:14:34;;;;;;;5.25;3.63;;;4.10;99.90;;;;;;5077524;28;20224;-60
2021/12/08 07:17:07;;;;;;;3.97;3.55;;;4.10;99.90;;;;;;5077182;28;20197;-61
2021/12/08 07:19:44;;;;;;;4.72;4.22;;;4.10;99.90;;;;;;5075062;28;20276;-60
2021/12/08 07:22:14;;;;;;;5.03;4.30;;;4.10;99.90;;;;;;5074720;28;20189;-60
2021/12/08 07:24:44;;;;;;;4.10;3.70;;;4.10;99.90;;;;;;5074402;28;20225;-60
2021/12/08 07:27:14;;;;;;;4.15;3.22;;;4.20;99.90;;;;;;5074050;28;20523;-60
2021/12/08 07:29:43;;;;;;;4.18;3.78;;;4.10;99.90;;;;;;5074343;28;20232;-59
2021/12/08 07:32:16;;;;;;;5.18;3.72;;;4.20;99.90;;;;;;5074296;28;20201;-60
2021/12/08 07:34:43;;;;;;;4.85;3.92;;;4.10;99.90;;;;;;5074695;28;20229;-61
2021/12/08 07:37:15;;;;;;;4.80;3.63;;;4.20;99.90;;;;;;5074551;28;20205;-60
2021/12/08 07:39:47;;;;;;;5.55;4.95;;;4.20;99.90;;;;;;5074424;28;20181;-61
2021/12/08 07:42:19;;;;;;;3.47;3.13;;;4.20;99.90;;;;;;5073807;28;20230;-59
2021/12/08 07:44:49;;;;;;;5.30;3.28;;;4.20;99.90;;;;;;5074124;28;20221;-61
2021/12/08 07:47:20;;;;;;;5.30;3.63;;;4.30;99.90;;;;;;5073709;28;20211;-60
2021/12/08 07:49:52;;;;;;;4.25;3.85;;;4.30;99.90;;;;;;5073917;28;20205;-60
2021/12/08 07:52:23;;;;;;;5.40;3.95;;;4.30;99.90;;;;;;5074032;28;20242;-60
2021/12/08 07:54:50;;;;;;;5.32;3.88;;;4.30;99.80;;;;;;5073799;28;20232;-60
2021/12/08 07:57:23;;;;;;;5.88;4.03;;;4.30;99.70;;;;;;5073931;28;20201;-61
2021/12/08 07:59:55;;;;;;;4.07;3.67;;;4.30;99.90;;;;;;5073865;28;20192;-60
2021/12/08 08:02:28;;;;;;;5.13;4.00;;;4.30;99.70;;;;;;5073754;28;20189;-59
2021/12/08 08:04:59;;;;;;;4.95;3.72;;;4.30;99.70;;;;;;5073544;28;20220;-61
2021/12/08 08:07:26;;;;;;;5.13;3.85;;;4.40;99.60;;;;;;5073210;28;20696;-61
2021/12/08 08:10:00;;;;;;;4.30;3.30;;;4.40;99.60;;;;;;5073367;28;20231;-61
2021/12/08 08:12:29;;;;;;;6.03;3.90;;;4.40;99.70;;;;;;5073574;28;20189;-60
2021/12/08 08:14:58;;;;;;;5.60;3.97;;;4.40;99.70;;;;;;5073082;28;20621;-59
2021/12/08 08:17:33;;;;;;;6.15;4.00;;;4.40;99.50;;;;;;5073457;28;20201;-62
2021/12/08 08:20:02;;;;;;;5.88;4.22;;;4.40;99.50;;;;;;5073585;28;20185;-60
2021/12/08 08:22:31;;;;;;;5.93;4.40;;;4.50;99.50;;;;;;5073718;28;20684;-60
2021/12/08 08:25:04;;;;;;;5.93;4.53;;;4.50;99.40;;;;;;5073820;28;20595;-61
2021/12/08 08:27:31;;;;;;;5.60;4.93;;;4.50;99.40;;;;;;5073462;28;20272;-61
2021/12/08 08:29:59;;;;;;;4.82;4.13;;;4.50;99.30;;;;;;5074052;28;20221;-61
2021/12/08 08:32:34;;;;;;;5.30;4.68;;;4.50;99.30;;;;;;5076878;28;20201;-60
2021/12/08 08:35:07;;;;;;;4.85;4.32;;;4.50;99.30;;;;;;5076542;28;20224;-59
2021/12/08 08:37:34;;;;;;;4.95;4.38;;;4.50;99.30;;;;;;5074312;28;20193;-61
2021/12/08 08:40:06;;;;;;;4.57;4.13;;;4.60;99.20;;;;;;5073932;28;20293;-59
2021/12/08 08:42:37;;;;;;;6.00;4.78;;;4.60;99.40;;;;;;5073897;28;20185;-60
2021/12/08 08:45:07;;;;;;;5.20;4.13;;;4.60;99.40;;;;;;5073549;28;20217;-60
2021/12/08 08:47:45;;;;;;;4.82;4.32;;;4.70;99.40;;;;;;5073487;28;20186;-59
2021/12/08 08:50:19;;;;;;;5.60;4.40;;;4.70;99.40;;;;;;5073640;28;20205;-59
2021/12/08 08:52:49;;;;;;;5.30;4.80;;;4.70;99.30;;;;;;5073690;28;20193;-60
2021/12/08 08:55:20;;;;;;;4.70;4.30;;;4.80;99.30;;;;;;5077012;28;20185;-63
2021/12/08 08:57:49;;;;;;;5.30;4.80;;;4.90;99.20;;;;;;5077886;28;20205;-63
2021/12/08 09:00:20;;;;;;;6.50;4.75;;;4.90;99.00;;;;;;5077072;28;20204;-61
2021/12/08 09:02:51;;;;;;;6.03;5.22;;;5.00;99.00;;;;;;5077480;28;20557;-61
2021/12/08 09:05:24;;;;;;;6.88;5.10;;;5.00;98.80;;;;;;5077289;28;20189;-61
2021/12/08 09:07:53;;;;;;;7.72;4.65;;;5.10;98.50;;;;;;5076713;28;20209;-61
2021/12/08 09:10:23;;;;;;;7.47;4.65;;;5.00;98.50;;;;;;5076628;28;20220;-62
2021/12/08 09:12:55;;;;;;;5.90;3.83;;;5.10;98.50;;;;;;5076513;28;20186;-62
2021/12/08 09:15:28;;;;;;;7.85;4.78;;;5.10;98.50;;;;;;5077036;28;20189;-60
2021/12/08 09:17:59;;;;;;;7.22;4.47;;;5.20;98.40;;;;;;5077771;28;20192;-61
2021/12/08 09:20:32;;;;;;;5.13;4.55;;;5.20;98.30;;;;;;5078190;28;20181;-62
2021/12/08 09:23:02;;;;;;;3.90;3.50;;;5.20;98.10;;;;;;5078455;28;20185;-60
2021/12/08 09:25:34;;;;;;;5.82;4.45;;;5.20;98.10;;;;;;5079250;28;20200;-62
2021/12/08 09:28:07;;;;;;;5.72;4.30;;;5.20;98.10;;;;;;5078259;28;20242;-62
2021/12/08 09:30:38;;;;;;;6.45;5.10;;;5.30;98.00;;;;;;5077052;28;20208;-64
2021/12/08 09:33:10;;;;;;;4.15;3.85;;;5.30;97.90;;;;;;5076907;28;20228;-63
2021/12/08 09:35:43;;;;;;;4.95;4.45;;;5.40;97.90;;;;;;5076888;28;20216;-63
2021/12/08 09:38:14;;;;;;;6.47;4.90;;;5.50;97.80;;;;;;5076551;28;20182;-64
2021/12/08 09:40:47;;;;;;;6.63;4.95;;;5.50;97.70;;;;;;5076081;28;20189;-63
2021/12/08 09:43:20;;;;;;;6.03;4.35;;;5.60;97.50;;;;;;5076779;28;20315;-62
2021/12/08 09:45:51;;;;;;;6.38;4.80;;;5.60;97.30;;;;;;5076704;28;20189;-61
2021/12/08 09:48:20;;;;;;;5.60;4.18;;;5.70;97.30;;;;;;5077831;28;20193;-61
2021/12/08 09:50:48;;;;;;;6.18;3.95;;;5.70;97.20;;;;;;5077617;28;20707;-60
2021/12/08 09:53:15;;;;;;;4.47;3.80;;;5.80;97.00;;;;;;5077820;28;20221;-62
2021/12/08 09:55:42;;;;;;;5.18;4.20;;;5.80;97.00;;;;;;5077668;28;20200;-61
2021/12/08 09:58:10;;;;;;;7.43;4.45;;;5.80;96.90;;;;;;5077464;28;20228;-62
2021/12/08 10:00:41;;;;;;;5.50;4.75;;;5.80;96.90;;;;;;5076850;28;20201;-63
2021/12/08 10:03:09;;;;;;;6.22;4.30;;;5.80;96.80;;;;;;5076130;28;20244;-62
2021/12/08 10:05:39;;;;;;;4.70;4.25;;;5.70;96.90;;;;;;5077598;28;20570;-65
2021/12/08 10:08:08;;;;;;;4.70;4.10;;;5.80;96.90;;;;;;5078768;28;20212;-64
2021/12/08 10:10:36;;;;;;;7.75;4.53;;;5.80;96.80;;;;;;5078327;28;20220;-62
2021/12/08 10:13:05;;;;;;;6.85;4.35;;;5.80;96.80;;;;;;5076573;28;20224;-61
2021/12/08 10:15:32;;;;;;;7.57;4.20;;;5.80;96.80;;;;;;5075935;28;20208;-61
2021/12/08 10:18:00;;;;;;;7.70;4.40;;;5.80;96.50;;;;;;5075705;28;20205;-60
2021/12/08 10:20:30;;;;;;;4.88;3.88;;;5.70;96.50;;;;;;5097326;22;20230;-56
2021/12/08 10:23:18;;;;;;;5.15;4.65;;;5.70;96.80;;;;;;5035461;28;20605;-56
2021/12/08 10:25:48;;;;;;;7.30;4.50;;;5.70;96.70;;;;;;5034941;28;20618;-58
2021/12/08 10:28:19;;;;;;;8.20;4.80;;;5.70;96.70;;;;;;5035418;28;20202;-58
2021/12/08 10:30:52;;;;;;;6.55;4.85;;;5.70;96.70;;;;;;5034985;28;20234;-58
2021/12/08 10:36:46;;;;;;;7.25;4.30;;;5.70;96.70;;;;;;5034884;28;20313;-57
2021/12/08 10:39:18;;;;;;;6.88;4.38;;;5.60;96.70;;;;;;5034781;28;20191;-57
2021/12/08 10:41:50;;;;;;;4.40;3.83;;;5.60;96.80;;;;;;5034479;28;20233;-58
2021/12/08 10:44:22;;;;;;;4.93;3.83;;;5.70;96.90;;;;;;5034446;28;20194;-57
2021/12/08 10:46:52;;;;;;;6.50;4.38;;;5.70;96.90;;;;;;5034743;28;20565;-56
2021/12/08 10:49:25;;;;;;;8.85;5.13;;;5.70;97.00;;;;;;5034314;28;20230;-57
2021/12/08 10:54:38;;;;;;;8.13;5.13;;;5.90;96.90;;;;;;5034246;28;20256;-58
2021/12/08 10:57:21;;;;;;;8.57;5.13;;;5.90;96.80;;;;;;5034036;28;20202;-59
2021/12/08 11:00:01;;;;;;;4.82;4.22;;;5.90;96.50;;;;;;5034147;28;20186;-56
2021/12/08 11:02:51;;;;;;;7.10;4.75;;;5.90;96.70;;;;;;5033803;28;20196;-57
2021/12/08 11:05:42;;;;;;;5.30;3.90;;;6.00;96.60;;;;;;5033924;28;20276;-57
2021/12/08 11:08:20;;;;;;;7.15;5.45;;;6.10;96.60;;;;;;5033614;28;20197;-57
2021/12/08 11:10:51;;;;;;;5.00;4.50;;;6.10;96.50;;;;;;5034232;28;20599;-59
2021/12/08 11:13:22;;;;;;;8.48;4.63;;;6.10;96.40;;;;;;5033943;28;20302;-59
2021/12/08 11:16:00;;;;;;;4.70;3.83;;;6.20;96.30;;;;;;5033480;28;20216;-58
2021/12/08 11:18:30;;;;;;;5.40;3.80;;;6.20;96.20;;;;;;5033033;28;20186;-58
2021/12/08 11:20:59;;;;;;;7.85;4.60;;;6.20;96.20;;;;;;5033565;28;20226;-59
2021/12/08 11:23:40;;;;;;;7.75;3.80;;;6.20;96.10;;;;;;5033529;28;20293;-58
2021/12/08 11:26:21;;;;;;;5.45;4.25;;;6.30;96.10;;;;;;5033467;28;20661;-58
2021/12/08 11:28:59;;;;;;;6.18;3.88;;;6.30;96.00;;;;;;5033317;28;20201;-58
2021/12/08 11:31:30;;;;;;;4.75;3.80;;;6.40;95.90;;;;;;5033184;28;20314;-58
2021/12/08 11:34:01;;;;;;;7.18;6.07;;;6.50;95.70;;;;;;5033481;28;20202;-57
2021/12/08 11:36:30;;;;;;;5.85;4.45;;;6.50;95.70;;;;;;5034967;28;20244;-58
2021/12/08 11:38:59;;;;;;;6.90;4.43;;;6.50;95.70;;;;;;5034523;28;20209;-57
2021/12/08 11:41:34;;;;;;;8.10;5.60;;;6.60;95.60;;;;;;5033024;28;20598;-59
2021/12/08 11:44:03;;;;;;;5.70;4.25;;;6.70;95.50;;;;;;5034386;28;20205;-59
2021/12/08 11:46:37;;;;;;;7.80;4.25;;;6.80;95.40;;;;;;5033464;28;20202;-58
2021/12/08 11:49:07;;;;;;;8.88;4.50;;;6.90;95.30;;;;;;5033615;28;20209;-58
2021/12/08 11:51:49;;;;;;;4.40;3.58;;;7.00;95.20;;;;;;5033192;28;20227;-58
2021/12/08 11:54:28;;;;;;;8.63;3.50;;;7.00;95.00;;;;;;5033324;28;20604;-57
2021/12/08 11:57:03;;;;;;;6.28;4.38;;;7.10;95.00;;;;;;5033270;28;20190;-58
2021/12/08 11:59:30;;;;;;;7.13;4.38;;;7.10;94.90;;;;;;5032862;28;20209;-57
2021/12/08 12:01:57;;;;;;;6.53;3.97;;;7.10;94.80;;;;;;5033119;28;20237;-57
2021/12/08 12:04:25;;;;;;;6.18;3.78;;;7.20;94.70;;;;;;5033420;28;20210;-58
2021/12/08 12:06:53;;;;;;;4.93;4.40;;;7.20;94.50;;;;;;5033165;28;20209;-58
2021/12/08 12:09:20;;;;;;;5.20;3.58;;;7.20;94.50;;;;;;5032674;28;20249;-59
2021/12/08 12:11:48;;;;;;;6.13;3.55;;;7.20;94.50;;;;;;5032932;28;20249;-59
2021/12/08 12:14:17;;;;;;;5.32;3.55;;;7.30;94.40;;;;;;5032915;28;20198;-58
2021/12/08 12:16:45;;;;;;;6.80;3.70;;;7.30;94.30;;;;;;5032812;28;20209;-58
2021/12/08 12:19:16;;;;;;;3.85;3.53;;;7.30;94.30;;;;;;5033041;28;20678;-58
2021/12/08 12:21:56;;;;;;;4.75;4.22;;;7.30;94.10;;;;;;5033113;28;20812;-59
2021/12/08 12:24:49;;;;;;;8.02;3.92;;;7.30;94.10;;;;;;5032936;28;20190;-58
2021/12/08 12:27:38;;;;;;;5.15;3.90;;;7.20;94.10;;;;;;5032840;28;20553;-58
2021/12/08 12:30:17;;;;;;;4.55;3.15;;;7.10;94.10;;;;;;5035374;28;20690;-58
2021/12/08 12:32:47;;;;;;;6.30;3.67;;;7.10;94.00;;;;;;5036838;28;20191;-58
2021/12/08 12:35:18;;;;;;;4.40;3.70;;;7.00;94.10;;;;;;5036794;28;20191;-57
2021/12/08 12:37:46;;;;;;;5.93;3.80;;;6.90;94.20;;;;;;5037518;28;20191;-57
2021/12/08 12:40:16;;;;;;;4.38;3.72;;;6.80;94.30;;;;;;5037526;28;20218;-58
2021/12/08 12:42:53;;;;;;;5.00;3.35;;;6.80;94.60;;;;;;5037206;28;20206;-58
2021/12/08 12:45:24;;;;;;;6.07;3.90;;;6.70;94.50;;;;;;5037351;28;20194;-58
2021/12/08 12:48:10;;;;;;;7.80;3.88;;;6.70;94.70;;;;;;5036392;28;20190;-58
2021/12/08 12:50:55;;;;;;;3.58;3.10;;;6.70;94.70;;;;;;5036896;28;20233;-58
2021/12/08 12:53:49;;;;;;;5.55;4.45;;;6.70;94.50;;;;;;5036956;28;20186;-60
2021/12/08 12:56:44;;;;;;;5.32;3.60;;;6.60;94.70;;;;;;5022591;28;20238;-61
2021/12/08 12:59:16;;;;;;;4.18;3.75;;;6.70;94.80;;;;;;5036581;28;20206;-59
2021/12/08 13:01:47;;;;;;;6.05;4.18;;;6.60;94.90;;;;;;5036818;28;20222;-60
2021/12/08 13:04:20;;;;;;;8.25;4.55;;;6.60;94.90;;;;;;5036817;28;20209;-60
2021/12/08 13:06:49;;;;;;;4.82;4.43;;;6.60;95.00;;;;;;5036652;28;20281;-59
2021/12/08 13:09:39;;;;;;;6.78;4.85;;;6.70;95.10;;;;;;5036409;28;20198;-59
2021/12/08 13:12:09;;;;;;;5.10;3.60;;;6.60;94.90;;;;;;5035857;28;20225;-59
2021/12/08 13:14:37;;;;;;;6.65;3.58;;;6.60;95.10;;;;;;5036023;28;20584;-59
2021/12/08 13:17:21;;;;;;;5.32;3.85;;;6.60;95.10;;;;;;5036297;28;20550;-59
2021/12/08 13:19:51;;;;;;;5.10;3.80;;;6.60;94.80;;;;;;5036126;28;20198;-59
2021/12/08 13:22:52;;;;;;;6.50;4.57;;;6.60;95.10;;;;;;5035861;28;20199;-60
2021/12/08 13:25:45;;;;;;;4.38;3.80;;;6.60;95.30;;;;;;5036847;28;20241;-59
2021/12/08 13:28:21;;;;;;;6.95;5.60;;;6.60;95.30;;;;;;5036009;28;20198;-59
2021/12/08 13:30:54;;;;;;;4.82;3.53;;;6.60;95.40;;;;;;5035880;28;20702;-59
2021/12/08 13:33:32;;;;;;;4.70;4.20;;;6.60;95.40;;;;;;5035884;28;20194;-59
2021/12/08 13:36:02;;;;;;;4.55;3.67;;;6.60;95.30;;;;;;5035641;28;20193;-59
2021/12/08 13:38:41;;;;;;;4.55;3.10;;;6.60;95.40;;;;;;5035942;28;20213;-59
2021/12/08 13:41:14;;;;;;;5.40;3.28;;;6.60;95.50;;;;;;5035105;28;20271;-59
2021/12/08 13:43:44;;;;;;;4.80;3.92;;;6.60;95.50;;;;;;5035820;28;20191;-61
2021/12/08 13:46:32;;;;;;;7.78;4.03;;;6.50;95.50;;;;;;5035714;28;20229;-59
2021/12/08 13:49:16;;;;;;;5.60;3.70;;;6.50;95.50;;;;;;5034812;28;20203;-60
2021/12/08 13:51:44;;;;;;;6.15;4.20;;;6.50;95.60;;;;;;5034991;28;20222;-60
2021/12/08 13:54:28;;;;;;;7.72;3.45;;;6.50;95.60;;;;;;5035292;28;20301;-59
2021/12/08 13:56:55;;;;;;;6.60;3.60;;;6.50;95.60;;;;;;5035812;28;20198;-58